Language selection

Weather shortcuts

Rankin - northern half: Past 24 Hour Conditions

 

La Grande Rivière Airport

02:00 PM EST 08 December 2023
Disclaimer

This table is a summary of hourly weather conditions for the past 24 hours.
Please note that these observations might not always be representative of weather conditions over their associated marine area.

Date / Time
(EST)
Wind(knots) Conditions Visibility(km) Pressure(kPa) Air tempC) Relative humidity(%) Dew pointC) Wind Chill
08 December 2023
14:00 SE 10 Cloudy 24 101.8 -10 90 -12 -18
13:00 SE 10 gust 16 Cloudy 24 101.7 -11 90 -12 -18
12:00 ESE 12 Mostly Cloudy 24 101.8 -12 89 -13 -20
11:00 SE 11 Ice Crystals 24 101.8 -13 88 -15 -22
10:00 ESE 11 Light Snow 16 101.8 -15 85 -17 -24
9:00 ESE 8 Cloudy 24 101.9 -18 84 -20 -26
8:00 ESE 6 Partly Cloudy 24 101.9 -19 84 -21 -26
7:00 ESE 8 Light Snow 11 101.9 -16 85 -18 -24
6:00 ESE 8 Light Snow 16 101.9 -16 85 -18 -24
5:00 ESE 8 Cloudy 24 101.9 -17 85 -19 -25
4:00 E 5 Cloudy 24 101.8 -17 84 -19 -23
3:00 SE 9 Clear 24 101.8 -17 84 -19 -26
2:00 SE 10 Clear 24 101.8 -17 85 -19 -26
1:00 ESE 8 Clear 24 101.7 -18 84 -20 -27
0:00 ESE 11 Clear 24 101.7 -18 84 -20 -28
07 December 2023
23:00 SE 9 Mainly Clear 24 101.7 -17 85 -18 -25
22:00 SE 7 Mainly Clear 24 101.7 -18 84 -20 -26
21:00 ESE 6 Partly Cloudy 24 101.7 -17 85 -19 -25
20:00 ESE 12 Partly Cloudy 24 101.7 -16 85 -18 -26
19:00 E 5 Cloudy 24 101.7 -15 87 -17 -21
18:00 ESE 10 Mostly Cloudy 24 101.6 -15 87 -17 -24
17:00 ESE 11 Mainly Clear 24 101.6 -15 88 -16 -24
16:00 E 9 Partly Cloudy 24 101.6 -14 88 -15 -22
15:00 ESE 9 Ice Crystals 24 101.5 -13 89 -14 -21
14:00 ESE 10 Ice Crystals 24 101.5 -12 89 -14 -20

Zoom-in to make a selection

Map of Hudson - Hudson Bay marine weather areas Arviat Airport Baker Lake Airport Chesterfield Inlet Airport Coral Harbour Airport Rankin Inlet Airport Sanikiluaq Airport Whale Cove Airport Kinngait (Cape Dorset Airport) Iqaluit Airport Wager Bay Kimmirut Airport Churchill Airport Fort Severn Airport Peawanuck Airport Moosonee Airport Eastmain Airport La Grande Rivière Airport Waskaganish Airport Wemindji Airport Akulivik Airport Inukjuak Airport Ivujivik Airport Kuujjuarapik Airport Puvirnituq Airport Umiujaq Airport Aupaluk Airport Kangiqsujuaq Airport Kangirsuk Airport Kangiqsualujjuaq Airport Kuujjuaq Airport Quaqtaq Airport Salluit Airport Tasiujaq Airport Cape Kakkiviak
Legend:
buoy Buoy
land station Land Station

Hudson - Hudson Bay Area

Another Region

Date modified: